createdAt,value
2022-10-30T00:00:28.610Z,12.55
2022-10-30T00:03:46.315Z,12.53
2022-10-30T00:07:03.488Z,12.50
2022-10-30T00:10:21.424Z,12.49
2022-10-30T00:16:53.836Z,12.44
2022-10-30T00:20:10.877Z,12.41
2022-10-30T00:23:27.761Z,12.41
2022-10-30T00:26:44.530Z,12.39
2022-10-30T00:30:00.720Z,12.44
2022-10-30T00:33:17.544Z,12.45
2022-10-30T00:36:33.844Z,12.36
2022-10-30T00:39:50.388Z,12.28
2022-10-30T00:43:06.944Z,12.23
2022-10-30T00:46:30.736Z,12.23
2022-10-30T00:49:53.238Z,12.25
2022-10-30T00:53:13.433Z,12.26
2022-10-30T00:56:32.118Z,12.27
2022-10-30T00:59:50.123Z,12.30
2022-10-30T01:03:06.685Z,12.27
2022-10-30T01:06:25.181Z,12.26
2022-10-30T01:09:42.100Z,12.21
2022-10-30T01:13:00.678Z,12.17
2022-10-30T01:16:50.568Z,12.15
2022-10-30T01:20:20.225Z,12.16
2022-10-30T01:23:45.270Z,12.24
2022-10-30T01:30:29.562Z,12.35
2022-10-30T01:33:56.756Z,12.33
2022-10-30T01:37:18.440Z,12.32
2022-10-30T01:40:35.256Z,12.41
2022-10-30T01:47:26.103Z,12.50
2022-10-30T01:50:49.810Z,12.53
2022-10-30T01:54:13.151Z,12.55
2022-10-30T01:57:39.543Z,12.55
2022-10-30T02:01:02.396Z,12.54
2022-10-30T02:04:20.281Z,12.54
2022-10-30T02:07:38.725Z,12.53
2022-10-30T02:16:13.544Z,12.48
2022-10-30T02:19:32.004Z,12.45
2022-10-30T02:22:53.052Z,12.41
2022-10-30T02:26:08.474Z,12.41
2022-10-30T02:29:25.518Z,12.36
2022-10-30T02:32:42.191Z,12.33
2022-10-30T02:35:59.053Z,12.33
2022-10-30T02:39:15.819Z,12.31
2022-10-30T02:45:47.837Z,12.29
2022-10-30T02:49:04.114Z,12.24
2022-10-30T02:52:21.275Z,12.19
2022-10-30T02:55:37.795Z,12.14
2022-10-30T03:02:09.932Z,12.10
2022-10-30T03:05:26.908Z,12.11
2022-10-30T03:08:44.475Z,12.07
2022-10-30T03:12:01.167Z,12.06
2022-10-30T03:15:19.469Z,11.99
2022-10-30T03:18:35.829Z,11.83
2022-10-30T03:21:53.722Z,11.74
2022-10-30T03:25:11.032Z,11.68
2022-10-30T03:28:27.503Z,11.65
2022-10-30T03:31:43.883Z,11.66
2022-10-30T03:35:04.955Z,11.72
2022-10-30T03:38:21.861Z,11.76
2022-10-30T03:41:38.218Z,11.78
2022-10-30T03:44:57.108Z,11.73
2022-10-30T03:48:14.857Z,11.72
2022-10-30T03:51:30.530Z,11.74
2022-10-30T03:54:46.596Z,11.73
2022-10-30T03:58:02.955Z,11.71
2022-10-30T04:01:20.000Z,11.73
2022-10-30T04:04:37.945Z,11.75
2022-10-30T04:07:54.992Z,11.77
2022-10-30T04:11:11.392Z,11.79
2022-10-30T04:17:44.483Z,11.75
2022-10-30T04:21:01.403Z,11.70
2022-10-30T04:24:19.573Z,11.71
2022-10-30T04:27:37.397Z,11.72
2022-10-30T04:30:54.056Z,11.69
2022-10-30T04:34:10.228Z,11.64
2022-10-30T04:37:26.619Z,11.52
2022-10-30T04:40:46.535Z,11.56
2022-10-30T04:44:02.787Z,11.55
2022-10-30T04:47:21.078Z,11.52
2022-10-30T04:50:39.638Z,11.50
2022-10-30T04:53:55.960Z,11.46
2022-10-30T04:57:12.230Z,11.49
2022-10-30T05:00:30.521Z,11.48
2022-10-30T05:03:50.668Z,11.46
2022-10-30T05:07:06.531Z,11.44
2022-10-30T05:10:23.898Z,11.41
2022-10-30T05:13:41.232Z,11.39
2022-10-30T05:16:57.427Z,11.32
2022-10-30T05:20:18.863Z,11.35
2022-10-30T05:23:33.984Z,11.28
2022-10-30T05:27:54.514Z,11.27
2022-10-30T05:31:11.043Z,11.26
2022-10-30T05:34:29.156Z,11.25
2022-10-30T05:37:45.299Z,11.21
2022-10-30T05:41:01.697Z,11.20
2022-10-30T05:44:28.872Z,11.15
2022-10-30T05:47:36.130Z,11.12
2022-10-30T05:50:53.965Z,11.16
2022-10-30T05:54:12.743Z,11.22
2022-10-30T06:00:49.616Z,11.28
2022-10-30T06:04:07.473Z,11.31
2022-10-30T06:07:25.693Z,11.29
2022-10-30T06:10:42.163Z,11.31
2022-10-30T06:17:22.668Z,11.51
2022-10-30T06:20:41.192Z,11.59
2022-10-30T06:24:15.615Z,11.71
2022-10-30T06:31:07.338Z,12.12
2022-10-30T06:34:25.857Z,12.35
2022-10-30T06:37:42.836Z,12.72
2022-10-30T06:41:02.455Z,13.08
2022-10-30T06:44:20.382Z,13.54
2022-10-30T06:47:36.838Z,14.02
2022-10-30T06:51:00.835Z,14.46
2022-10-30T06:54:18.401Z,14.71
2022-10-30T07:01:09.023Z,15.55
2022-10-30T07:04:46.584Z,15.89
2022-10-30T07:08:06.549Z,16.26
2022-10-30T07:11:22.909Z,16.53
2022-10-30T07:18:16.705Z,16.79
2022-10-30T07:21:33.829Z,16.64
2022-10-30T07:24:51.794Z,16.09
2022-10-30T07:28:09.694Z,15.86
2022-10-30T07:31:41.876Z,15.50
2022-10-30T07:34:59.028Z,15.23
2022-10-30T07:38:22.971Z,14.98
2022-10-30T07:41:41.388Z,14.87
2022-10-30T07:45:21.540Z,14.73
2022-10-30T07:48:48.676Z,14.56
2022-10-30T07:52:16.309Z,14.52
2022-10-30T07:55:33.683Z,14.48
2022-10-30T08:02:10.036Z,14.40
2022-10-30T08:05:34.034Z,14.46
2022-10-30T08:08:50.693Z,14.54
2022-10-30T08:12:26.208Z,14.75
2022-10-30T08:15:42.622Z,14.85
2022-10-30T08:18:59.334Z,14.85
2022-10-30T08:22:17.269Z,14.88
2022-10-30T08:25:37.256Z,14.93
2022-10-30T08:28:53.490Z,15.05
2022-10-30T08:32:09.880Z,15.18
2022-10-30T08:35:28.719Z,15.20
2022-10-30T08:38:46.739Z,15.35
2022-10-30T08:42:15.018Z,15.46
2022-10-30T08:45:33.411Z,15.60
2022-10-30T08:48:51.497Z,15.81
2022-10-30T08:52:07.686Z,15.97
2022-10-30T08:55:24.471Z,16.13
2022-10-30T08:58:42.613Z,16.27
2022-10-30T09:01:59.510Z,16.37
2022-10-30T09:05:25.435Z,16.48
2022-10-30T09:08:59.413Z,16.55
2022-10-30T09:12:26.370Z,16.48
2022-10-30T09:15:43.658Z,16.42
2022-10-30T09:19:02.561Z,16.42
2022-10-30T09:22:20.181Z,16.40
2022-10-30T09:25:37.518Z,16.42
2022-10-30T09:29:11.834Z,16.48
2022-10-30T09:32:28.586Z,16.59
2022-10-30T09:36:00.453Z,16.74
2022-10-30T09:39:16.046Z,16.87
2022-10-30T09:42:54.646Z,17.07
2022-10-30T09:46:39.239Z,17.29
2022-10-30T09:50:26.724Z,17.49
2022-10-30T09:53:50.983Z,17.75
2022-10-30T09:57:13.135Z,17.87
2022-10-30T10:00:33.304Z,18.05
2022-10-30T10:04:04.384Z,18.14
2022-10-30T10:07:34.876Z,18.23
2022-10-30T10:11:04.823Z,18.34
2022-10-30T10:14:26.451Z,18.43
2022-10-30T10:17:46.899Z,18.49
2022-10-30T10:21:18.247Z,18.52
2022-10-30T10:24:38.270Z,18.63
2022-10-30T10:28:05.597Z,18.82
2022-10-30T10:31:36.512Z,18.91
2022-10-30T10:35:30.631Z,19.13
2022-10-30T10:39:05.823Z,19.24
2022-10-30T10:42:30.449Z,19.23
2022-10-30T10:45:55.424Z,19.22
2022-10-30T10:49:29.677Z,19.19
2022-10-30T10:52:55.091Z,19.14
2022-10-30T10:56:13.561Z,19.20
2022-10-30T10:59:38.365Z,19.26
2022-10-30T11:03:00.490Z,19.28
2022-10-30T11:06:32.035Z,19.31
2022-10-30T11:09:49.619Z,19.40
2022-10-30T11:13:10.023Z,19.48
2022-10-30T11:16:33.492Z,19.54
2022-10-30T11:19:51.806Z,19.59
2022-10-30T11:23:07.600Z,19.51
2022-10-30T11:26:43.633Z,19.46
2022-10-30T11:30:08.922Z,19.43
2022-10-30T11:33:38.124Z,19.40
2022-10-30T11:36:55.805Z,19.30
2022-10-30T11:40:29.134Z,19.26
2022-10-30T11:43:51.045Z,19.19
2022-10-30T11:47:09.922Z,19.14
2022-10-30T11:50:30.471Z,19.16
2022-10-30T11:53:51.324Z,19.15
2022-10-30T11:57:08.604Z,19.18
2022-10-30T12:00:29.688Z,19.25
2022-10-30T12:03:48.398Z,19.30
2022-10-30T12:07:23.905Z,19.33
2022-10-30T12:10:43.742Z,19.37
2022-10-30T12:14:03.025Z,19.43
2022-10-30T12:17:22.231Z,19.45
2022-10-30T12:20:42.820Z,19.45
2022-10-30T12:24:07.775Z,19.43
2022-10-30T12:27:25.254Z,19.39
2022-10-30T12:30:50.649Z,19.37
2022-10-30T12:34:18.618Z,19.35
2022-10-30T12:37:38.821Z,19.39
2022-10-30T12:41:07.256Z,19.41
2022-10-30T12:44:27.406Z,19.44
2022-10-30T12:47:48.981Z,19.45
2022-10-30T12:51:19.768Z,19.42
2022-10-30T12:54:41.930Z,19.38
2022-10-30T12:58:02.781Z,19.37
2022-10-30T13:01:29.223Z,19.34
2022-10-30T13:04:49.602Z,19.34
2022-10-30T13:08:23.461Z,19.34
2022-10-30T13:11:49.933Z,19.35
2022-10-30T13:15:10.008Z,19.34
2022-10-30T13:18:30.833Z,19.35
2022-10-30T13:21:54.959Z,19.37
2022-10-30T13:25:17.022Z,19.42
2022-10-30T13:28:38.613Z,19.44
2022-10-30T13:32:08.029Z,19.47
2022-10-30T13:35:36.597Z,19.48
2022-10-30T13:39:00.054Z,19.49
2022-10-30T13:42:31.008Z,19.51
2022-10-30T13:46:21.229Z,19.51
2022-10-30T13:49:53.891Z,19.51
2022-10-30T13:53:16.317Z,19.51
2022-10-30T13:56:33.687Z,19.50
2022-10-30T14:00:10.438Z,19.52
2022-10-30T14:03:51.737Z,19.52
2022-10-30T14:07:22.410Z,19.51
2022-10-30T14:11:00.376Z,19.49
2022-10-30T14:14:35.456Z,19.47
2022-10-30T14:18:24.668Z,19.44
2022-10-30T14:22:02.104Z,19.41
2022-10-30T14:25:24.375Z,19.39
2022-10-30T14:28:42.326Z,19.33
2022-10-30T14:31:59.249Z,19.30
2022-10-30T14:35:41.634Z,19.26
2022-10-30T14:39:11.234Z,19.21
2022-10-30T14:42:35.543Z,19.16
2022-10-30T14:45:59.246Z,19.13
2022-10-30T14:49:52.588Z,19.06
2022-10-30T14:53:37.252Z,19.01
2022-10-30T14:56:56.743Z,18.96
2022-10-30T15:03:44.669Z,18.79
2022-10-30T15:07:14.233Z,18.67
2022-10-30T15:10:34.543Z,18.56
2022-10-30T15:19:40.954Z,18.26
2022-10-30T15:23:01.333Z,18.22
2022-10-30T15:26:30.682Z,18.16
2022-10-30T15:29:47.272Z,18.07
2022-10-30T15:33:03.992Z,17.96
2022-10-30T15:36:29.308Z,17.81
2022-10-30T15:39:58.440Z,17.71
2022-10-30T15:43:19.565Z,17.61
2022-10-30T15:46:43.355Z,17.54
2022-10-30T15:50:09.730Z,17.39
2022-10-30T15:53:46.693Z,17.27
2022-10-30T15:57:42.891Z,17.17
2022-10-30T16:03:49.965Z,17.01
2022-10-30T16:07:18.926Z,16.90
2022-10-30T16:10:43.320Z,16.80
2022-10-30T16:14:01.213Z,16.66
2022-10-30T16:20:37.639Z,16.44
2022-10-30T16:23:59.539Z,16.34
2022-10-30T16:27:24.189Z,16.26
2022-10-30T16:30:47.123Z,16.20
2022-10-30T16:34:08.730Z,16.10
2022-10-30T16:37:31.263Z,16.02
2022-10-30T16:40:54.370Z,15.91
2022-10-30T16:45:17.634Z,15.79
2022-10-30T16:48:38.201Z,15.63
2022-10-30T16:51:55.638Z,15.53
2022-10-30T16:55:19.533Z,15.48
2022-10-30T16:58:39.136Z,15.41
2022-10-30T17:02:11.752Z,15.34
2022-10-30T17:05:35.965Z,15.28
2022-10-30T17:09:01.899Z,15.25
2022-10-30T17:12:26.879Z,15.21
2022-10-30T17:19:06.799Z,15.00
2022-10-30T17:22:31.794Z,14.94
2022-10-30T17:26:08.340Z,14.91
2022-10-30T17:30:16.342Z,14.82
2022-10-30T17:33:46.052Z,14.75
2022-10-30T17:37:07.016Z,14.69
2022-10-30T17:40:24.903Z,14.55
2022-10-30T17:44:05.753Z,14.46
2022-10-30T17:47:34.887Z,14.38
2022-10-30T17:50:52.640Z,14.36
2022-10-30T17:54:21.029Z,14.30
2022-10-30T17:57:44.944Z,14.26
2022-10-30T18:01:04.742Z,14.23
2022-10-30T18:04:26.960Z,14.20
2022-10-30T18:08:02.916Z,14.15
2022-10-30T18:11:22.087Z,14.12
2022-10-30T18:14:35.847Z,14.10
2022-10-30T18:17:52.237Z,14.04
2022-10-30T18:21:09.331Z,13.99
2022-10-30T18:24:31.472Z,13.90
2022-10-30T18:27:50.242Z,13.85
2022-10-30T18:34:28.589Z,13.76
2022-10-30T18:37:47.633Z,13.75
2022-10-30T18:41:13.859Z,13.67
2022-10-30T18:44:30.687Z,13.57
2022-10-30T18:51:03.113Z,13.42
2022-10-30T18:54:22.871Z,13.32
2022-10-30T18:57:38.995Z,13.30
2022-10-30T19:01:12.400Z,13.26
2022-10-30T19:04:21.726Z,13.22
2022-10-30T19:07:35.582Z,13.16
2022-10-30T19:10:55.677Z,13.10
2022-10-30T19:14:16.714Z,13.03
2022-10-30T19:17:32.996Z,13.00
2022-10-30T19:21:03.943Z,12.92
2022-10-30T19:24:18.538Z,12.87
2022-10-30T19:27:34.786Z,12.84
2022-10-30T19:34:07.182Z,12.75
2022-10-30T19:37:24.661Z,12.72
2022-10-30T19:40:46.243Z,12.66
2022-10-30T19:44:02.741Z,12.60
2022-10-30T19:47:21.147Z,12.54
2022-10-30T19:50:47.156Z,12.50
2022-10-30T19:54:03.193Z,12.40
2022-10-30T19:57:24.689Z,12.36
2022-10-30T20:05:39.870Z,12.23
2022-10-30T20:09:01.629Z,12.19
2022-10-30T20:12:19.790Z,12.12
2022-10-30T20:15:43.939Z,12.11
2022-10-30T20:20:13.317Z,12.04
2022-10-30T20:23:41.039Z,11.98
2022-10-30T20:26:58.076Z,11.93
2022-10-30T20:30:42.451Z,11.91
2022-10-30T20:37:30.283Z,11.86
2022-10-30T20:40:52.501Z,11.80
2022-10-30T20:44:08.926Z,11.86
2022-10-30T20:50:41.283Z,11.82
2022-10-30T20:53:57.619Z,11.74
2022-10-30T20:57:13.943Z,11.75
2022-10-30T21:00:30.521Z,11.75
2022-10-30T21:07:05.809Z,11.73
2022-10-30T21:10:27.813Z,11.68
2022-10-30T21:13:43.625Z,11.67
2022-10-30T21:20:17.687Z,11.65
2022-10-30T21:23:34.106Z,11.66
2022-10-30T21:26:50.447Z,11.65
2022-10-30T21:30:10.475Z,11.61
2022-10-30T21:36:42.660Z,11.51
2022-10-30T21:39:59.162Z,11.49
2022-10-30T21:43:15.600Z,11.46
2022-10-30T21:46:36.433Z,11.48
2022-10-30T21:49:50.264Z,11.54
2022-10-30T21:53:07.349Z,11.56
2022-10-30T21:56:27.075Z,11.56
2022-10-30T21:59:43.409Z,11.59
2022-10-30T22:03:03.646Z,11.63
2022-10-30T22:06:23.363Z,11.70
2022-10-30T22:09:39.616Z,11.82
2022-10-30T22:12:58.973Z,11.93
2022-10-30T22:21:13.534Z,12.12
2022-10-30T22:24:31.330Z,12.17
2022-10-30T22:27:47.896Z,12.23
2022-10-30T22:31:08.641Z,12.30
2022-10-30T22:37:41.173Z,12.48
2022-10-30T22:40:57.341Z,12.55
2022-10-30T22:44:18.233Z,12.61
2022-10-30T22:47:34.493Z,12.63
2022-10-30T22:50:50.616Z,12.64
2022-10-30T22:54:11.282Z,12.66
2022-10-30T22:57:27.413Z,12.67
2022-10-30T23:00:43.591Z,12.69
2022-10-30T23:04:02.542Z,12.69
2022-10-30T23:07:18.653Z,12.66
2022-10-30T23:10:34.960Z,12.67
2022-10-30T23:13:51.433Z,12.68
2022-10-30T23:17:07.658Z,12.71
2022-10-30T23:20:26.566Z,12.67
2022-10-30T23:23:44.795Z,12.59
2022-10-30T23:27:01.872Z,12.64
2022-10-30T23:30:20.736Z,12.63
2022-10-30T23:33:37.657Z,12.57
2022-10-30T23:36:57.663Z,12.54
2022-10-30T23:40:13.435Z,12.52
2022-10-30T23:43:29.945Z,12.54
2022-10-30T23:51:56.700Z,12.53
2022-10-30T23:55:14.836Z,12.48
2022-10-30T23:58:32.037Z,12.46
